Main page
METAR-TAF:

METAR-TAF

Airports :

Pointe-Noire, Congo

Pointe Noire Airport

latitude: 04-49S, longitude: 011-54E, elevation: 17 m

Current weather observation

The report was made 1 hour and 4 minutes ago, at 11:00 UTC
Wind 8 kt from the South/Southwest
Temperature 27°C
Humidity 74%
Pressure 1014 hPa
Visibility: 8000 m
Scattered clouds at a height of 1300 ft
Broken clouds at a height of 2600 ft

METAR: FCPP 261100Z 21008KT 8000 SCT013 BKN026 27/22 Q1014 NOSIG

Time: 13:04 (12:04 UTC)


TAF: missing

Weather observations and forecasts of more than 4000 airports (METAR and TAF reports).

The available stations are represented by yellow and red dots on the map.

Hover mouse over dot to see the name of the station.

Then click to see weather observations and forecasts.

To change the map : click on the green buttons with a black cross to zoom in, on the green button with a dash to zoom out, or on the green arrows for adjacent maps.


METAR-TAF: